sensor_id;sensor_type;location;lat;lon;timestamp;P1;durP1;ratioP1;P2;durP2;ratioP2
8665;SDS011;4370;48.916;8.380;2022-09-21T00:01:20;5.07;;;2.87;;
8665;SDS011;4370;48.916;8.380;2022-09-21T00:03:54;3.73;;;3.10;;
8665;SDS011;4370;48.916;8.380;2022-09-21T00:06:21;3.53;;;3.03;;
8665;SDS011;4370;48.916;8.380;2022-09-21T00:08:49;4.87;;;3.33;;
8665;SDS011;4370;48.916;8.380;2022-09-21T00:11:22;6.17;;;3.60;;
8665;SDS011;4370;48.916;8.380;2022-09-21T00:13:51;3.50;;;3.00;;
8665;SDS011;4370;48.916;8.380;2022-09-21T00:16:19;6.23;;;3.60;;
8665;SDS011;4370;48.916;8.380;2022-09-21T00:18:45;3.87;;;2.93;;
8665;SDS011;4370;48.916;8.380;2022-09-21T00:21:12;3.67;;;2.97;;
8665;SDS011;4370;48.916;8.380;2022-09-21T00:23:38;4.70;;;3.00;;
8665;SDS011;4370;48.916;8.380;2022-09-21T00:28:31;5.33;;;2.87;;
8665;SDS011;4370;48.916;8.380;2022-09-21T00:31:02;4.83;;;2.93;;
8665;SDS011;4370;48.916;8.380;2022-09-21T00:33:32;7.33;;;3.73;;
8665;SDS011;4370;48.916;8.380;2022-09-21T00:36:02;3.67;;;3.27;;
8665;SDS011;4370;48.916;8.380;2022-09-21T00:38:29;3.63;;;3.10;;
8665;SDS011;4370;48.916;8.380;2022-09-21T00:40:55;6.80;;;3.50;;
8665;SDS011;4370;48.916;8.380;2022-09-21T00:43:21;5.17;;;3.37;;
8665;SDS011;4370;48.916;8.380;2022-09-21T00:45:47;3.67;;;3.07;;
8665;SDS011;4370;48.916;8.380;2022-09-21T00:48:16;5.07;;;3.40;;
8665;SDS011;4370;48.916;8.380;2022-09-21T00:50:43;8.47;;;5.00;;
8665;SDS011;4370;48.916;8.380;2022-09-21T00:53:13;5.90;;;4.90;;
8665;SDS011;4370;48.916;8.380;2022-09-21T00:55:42;7.30;;;4.63;;
8665;SDS011;4370;48.916;8.380;2022-09-21T00:58:13;7.27;;;4.33;;
8665;SDS011;4370;48.916;8.380;2022-09-21T01:00:42;6.20;;;4.17;;
8665;SDS011;4370;48.916;8.380;2022-09-21T01:03:08;4.73;;;4.20;;
8665;SDS011;4370;48.916;8.380;2022-09-21T01:05:35;4.77;;;3.87;;
8665;SDS011;4370;48.916;8.380;2022-09-21T01:08:01;4.87;;;3.80;;
8665;SDS011;4370;48.916;8.380;2022-09-21T01:10:31;5.30;;;3.53;;
8665;SDS011;4370;48.916;8.380;2022-09-21T01:13:27;4.90;;;4.03;;
8665;SDS011;4370;48.916;8.380;2022-09-21T01:18:36;6.10;;;3.80;;
8665;SDS011;4370;48.916;8.380;2022-09-21T01:21:30;5.47;;;3.63;;
8665;SDS011;4370;48.916;8.380;2022-09-21T01:24:16;9.87;;;4.57;;
8665;SDS011;4370;48.916;8.380;2022-09-21T01:29:56;5.93;;;4.00;;
8665;SDS011;4370;48.916;8.380;2022-09-21T01:37:40;8.93;;;5.10;;
8665;SDS011;4370;48.916;8.380;2022-09-21T01:40:21;8.80;;;5.30;;
8665;SDS011;4370;48.916;8.380;2022-09-21T01:42:51;11.93;;;5.27;;
8665;SDS011;4370;48.916;8.380;2022-09-21T01:45:20;6.47;;;4.80;;
8665;SDS011;4370;48.916;8.380;2022-09-21T01:47:51;5.47;;;4.10;;
8665;SDS011;4370;48.916;8.380;2022-09-21T01:50:20;6.17;;;4.47;;
8665;SDS011;4370;48.916;8.380;2022-09-21T01:52:51;6.80;;;4.80;;
8665;SDS011;4370;48.916;8.380;2022-09-21T01:55:25;7.17;;;4.33;;
8665;SDS011;4370;48.916;8.380;2022-09-21T01:58:08;7.57;;;4.97;;
8665;SDS011;4370;48.916;8.380;2022-09-21T02:00:38;5.27;;;4.30;;
8665;SDS011;4370;48.916;8.380;2022-09-21T02:03:08;5.57;;;4.57;;
8665;SDS011;4370;48.916;8.380;2022-09-21T02:05:38;6.20;;;4.33;;
8665;SDS011;4370;48.916;8.380;2022-09-21T02:08:05;6.50;;;4.10;;
8665;SDS011;4370;48.916;8.380;2022-09-21T02:10:33;5.97;;;4.03;;
8665;SDS011;4370;48.916;8.380;2022-09-21T02:13:03;4.03;;;3.60;;
8665;SDS011;4370;48.916;8.380;2022-09-21T02:15:34;6.73;;;4.63;;
8665;SDS011;4370;48.916;8.380;2022-09-21T02:21:07;14.83;;;5.80;;
8665;SDS011;4370;48.916;8.380;2022-09-21T02:23:49;11.63;;;4.70;;
8665;SDS011;4370;48.916;8.380;2022-09-21T02:26:23;6.27;;;4.50;;
8665;SDS011;4370;48.916;8.380;2022-09-21T02:29:00;6.80;;;4.63;;
8665;SDS011;4370;48.916;8.380;2022-09-21T02:32:02;4.87;;;3.97;;
8665;SDS011;4370;48.916;8.380;2022-09-21T02:34:34;5.23;;;4.30;;
8665;SDS011;4370;48.916;8.380;2022-09-21T02:37:10;5.13;;;3.90;;
8665;SDS011;4370;48.916;8.380;2022-09-21T02:39:47;5.27;;;3.77;;
8665;SDS011;4370;48.916;8.380;2022-09-21T02:42:29;5.00;;;3.70;;
8665;SDS011;4370;48.916;8.380;2022-09-21T02:45:00;7.57;;;4.00;;
8665;SDS011;4370;48.916;8.380;2022-09-21T02:47:35;4.83;;;3.57;;
8665;SDS011;4370;48.916;8.380;2022-09-21T02:50:10;7.50;;;3.97;;
8665;SDS011;4370;48.916;8.380;2022-09-21T02:52:40;5.83;;;4.37;;
8665;SDS011;4370;48.916;8.380;2022-09-21T02:55:08;5.03;;;4.03;;
8665;SDS011;4370;48.916;8.380;2022-09-21T02:57:35;5.90;;;4.43;;
8665;SDS011;4370;48.916;8.380;2022-09-21T03:00:02;4.47;;;4.03;;
8665;SDS011;4370;48.916;8.380;2022-09-21T03:02:36;5.93;;;4.10;;
8665;SDS011;4370;48.916;8.380;2022-09-21T03:05:06;4.67;;;3.67;;
8665;SDS011;4370;48.916;8.380;2022-09-21T03:07:33;4.70;;;3.77;;
8665;SDS011;4370;48.916;8.380;2022-09-21T03:09:59;6.93;;;4.50;;
8665;SDS011;4370;48.916;8.380;2022-09-21T03:12:24;7.73;;;4.63;;
8665;SDS011;4370;48.916;8.380;2022-09-21T03:14:50;6.00;;;4.43;;
8665;SDS011;4370;48.916;8.380;2022-09-21T03:17:17;5.70;;;3.73;;
8665;SDS011;4370;48.916;8.380;2022-09-21T03:19:43;5.87;;;3.80;;
8665;SDS011;4370;48.916;8.380;2022-09-21T03:22:09;7.87;;;5.33;;
8665;SDS011;4370;48.916;8.380;2022-09-21T03:24:34;7.17;;;4.07;;
8665;SDS011;4370;48.916;8.380;2022-09-21T03:27:09;5.70;;;4.03;;
8665;SDS011;4370;48.916;8.380;2022-09-21T03:29:35;5.77;;;4.37;;
8665;SDS011;4370;48.916;8.380;2022-09-21T03:32:01;6.40;;;4.37;;
8665;SDS011;4370;48.916;8.380;2022-09-21T03:34:27;10.17;;;5.63;;
8665;SDS011;4370;48.916;8.380;2022-09-21T03:36:56;6.53;;;4.07;;
8665;SDS011;4370;48.916;8.380;2022-09-21T03:39:22;5.80;;;4.03;;
8665;SDS011;4370;48.916;8.380;2022-09-21T03:41:48;8.50;;;5.60;;
8665;SDS011;4370;48.916;8.380;2022-09-21T03:44:14;7.20;;;4.80;;
8665;SDS011;4370;48.916;8.380;2022-09-21T03:46:41;5.70;;;3.93;;
8665;SDS011;4370;48.916;8.380;2022-09-21T03:49:07;7.70;;;5.47;;
8665;SDS011;4370;48.916;8.380;2022-09-21T03:51:33;6.90;;;4.27;;
8665;SDS011;4370;48.916;8.380;2022-09-21T03:53:59;5.47;;;4.30;;
8665;SDS011;4370;48.916;8.380;2022-09-21T03:56:24;5.50;;;4.13;;
8665;SDS011;4370;48.916;8.380;2022-09-21T03:58:50;6.17;;;4.20;;
8665;SDS011;4370;48.916;8.380;2022-09-21T04:01:15;7.80;;;4.47;;
8665;SDS011;4370;48.916;8.380;2022-09-21T04:03:41;5.57;;;4.43;;
8665;SDS011;4370;48.916;8.380;2022-09-21T04:06:08;5.87;;;4.00;;
8665;SDS011;4370;48.916;8.380;2022-09-21T04:08:34;7.03;;;5.23;;
8665;SDS011;4370;48.916;8.380;2022-09-21T04:11:00;7.90;;;4.67;;
8665;SDS011;4370;48.916;8.380;2022-09-21T04:13:27;5.23;;;4.10;;
8665;SDS011;4370;48.916;8.380;2022-09-21T04:15:53;5.33;;;4.30;;
8665;SDS011;4370;48.916;8.380;2022-09-21T04:18:19;6.27;;;4.70;;
8665;SDS011;4370;48.916;8.380;2022-09-21T04:20:44;5.50;;;4.00;;
8665;SDS011;4370;48.916;8.380;2022-09-21T04:23:10;7.53;;;5.50;;
8665;SDS011;4370;48.916;8.380;2022-09-21T04:25:36;6.53;;;4.30;;
8665;SDS011;4370;48.916;8.380;2022-09-21T04:28:02;7.27;;;4.23;;
8665;SDS011;4370;48.916;8.380;2022-09-21T04:30:28;11.13;;;6.37;;
8665;SDS011;4370;48.916;8.380;2022-09-21T04:32:54;9.50;;;6.63;;
8665;SDS011;4370;48.916;8.380;2022-09-21T04:35:20;8.33;;;4.83;;
8665;SDS011;4370;48.916;8.380;2022-09-21T04:37:46;7.37;;;5.63;;
8665;SDS011;4370;48.916;8.380;2022-09-21T04:40:11;6.43;;;4.77;;
8665;SDS011;4370;48.916;8.380;2022-09-21T04:42:37;8.77;;;4.50;;
8665;SDS011;4370;48.916;8.380;2022-09-21T04:45:03;5.67;;;4.47;;
8665;SDS011;4370;48.916;8.380;2022-09-21T04:47:29;6.47;;;4.57;;
8665;SDS011;4370;48.916;8.380;2022-09-21T04:49:55;5.63;;;4.60;;
8665;SDS011;4370;48.916;8.380;2022-09-21T04:52:21;7.60;;;5.03;;
8665;SDS011;4370;48.916;8.380;2022-09-21T04:54:47;5.83;;;4.70;;
8665;SDS011;4370;48.916;8.380;2022-09-21T04:57:14;9.03;;;5.77;;
8665;SDS011;4370;48.916;8.380;2022-09-21T04:59:39;7.50;;;5.40;;
8665;SDS011;4370;48.916;8.380;2022-09-21T05:02:05;8.70;;;5.13;;
8665;SDS011;4370;48.916;8.380;2022-09-21T05:04:31;8.53;;;5.37;;
8665;SDS011;4370;48.916;8.380;2022-09-21T05:06:57;9.90;;;6.73;;
8665;SDS011;4370;48.916;8.380;2022-09-21T05:09:23;10.63;;;5.80;;
8665;SDS011;4370;48.916;8.380;2022-09-21T05:12:07;7.17;;;4.73;;
8665;SDS011;4370;48.916;8.380;2022-09-21T05:14:34;7.40;;;4.87;;
8665;SDS011;4370;48.916;8.380;2022-09-21T05:16:59;7.00;;;4.90;;
8665;SDS011;4370;48.916;8.380;2022-09-21T05:19:25;6.87;;;4.97;;
8665;SDS011;4370;48.916;8.380;2022-09-21T05:21:51;5.73;;;4.43;;
8665;SDS011;4370;48.916;8.380;2022-09-21T05:24:17;7.03;;;5.67;;
8665;SDS011;4370;48.916;8.380;2022-09-21T05:26:43;8.20;;;5.20;;
8665;SDS011;4370;48.916;8.380;2022-09-21T05:29:09;6.17;;;4.77;;
8665;SDS011;4370;48.916;8.380;2022-09-21T05:31:40;7.40;;;4.60;;
8665;SDS011;4370;48.916;8.380;2022-09-21T05:37:42;7.93;;;4.57;;
8665;SDS011;4370;48.916;8.380;2022-09-21T05:40:23;7.30;;;5.00;;
8665;SDS011;4370;48.916;8.380;2022-09-21T05:42:48;8.77;;;5.13;;
8665;SDS011;4370;48.916;8.380;2022-09-21T05:45:15;12.83;;;5.83;;
8665;SDS011;4370;48.916;8.380;2022-09-21T05:47:48;10.50;;;5.40;;
8665;SDS011;4370;48.916;8.380;2022-09-21T05:55:57;6.50;;;5.20;;
8665;SDS011;4370;48.916;8.380;2022-09-21T06:03:36;6.87;;;5.33;;
8665;SDS011;4370;48.916;8.380;2022-09-21T06:06:06;7.17;;;5.20;;
8665;SDS011;4370;48.916;8.380;2022-09-21T06:08:32;6.80;;;5.03;;
8665;SDS011;4370;48.916;8.380;2022-09-21T06:10:57;10.53;;;5.00;;
8665;SDS011;4370;48.916;8.380;2022-09-21T06:13:24;7.53;;;5.03;;
8665;SDS011;4370;48.916;8.380;2022-09-21T06:15:50;11.47;;;5.23;;
8665;SDS011;4370;48.916;8.380;2022-09-21T06:18:16;7.13;;;5.03;;
8665;SDS011;4370;48.916;8.380;2022-09-21T06:20:42;7.40;;;4.97;;
8665;SDS011;4370;48.916;8.380;2022-09-21T06:23:09;9.03;;;5.50;;
8665;SDS011;4370;48.916;8.380;2022-09-21T06:25:36;7.73;;;5.37;;
8665;SDS011;4370;48.916;8.380;2022-09-21T06:28:03;5.90;;;4.87;;
8665;SDS011;4370;48.916;8.380;2022-09-21T06:30:36;6.23;;;5.10;;
8665;SDS011;4370;48.916;8.380;2022-09-21T06:33:03;10.93;;;5.23;;
8665;SDS011;4370;48.916;8.380;2022-09-21T06:35:30;9.40;;;5.73;;
8665;SDS011;4370;48.916;8.380;2022-09-21T06:38:01;6.73;;;5.60;;
8665;SDS011;4370;48.916;8.380;2022-09-21T06:40:29;12.63;;;5.13;;
8665;SDS011;4370;48.916;8.380;2022-09-21T06:42:58;7.33;;;4.70;;
8665;SDS011;4370;48.916;8.380;2022-09-21T06:45:25;8.40;;;4.83;;
8665;SDS011;4370;48.916;8.380;2022-09-21T06:47:52;8.90;;;5.47;;
8665;SDS011;4370;48.916;8.380;2022-09-21T06:50:19;8.33;;;5.20;;
8665;SDS011;4370;48.916;8.380;2022-09-21T06:52:44;10.63;;;5.07;;
8665;SDS011;4370;48.916;8.380;2022-09-21T06:55:11;9.13;;;5.30;;
8665;SDS011;4370;48.916;8.380;2022-09-21T06:57:37;7.37;;;5.17;;
8665;SDS011;4370;48.916;8.380;2022-09-21T07:00:04;7.03;;;4.93;;
8665;SDS011;4370;48.916;8.380;2022-09-21T07:02:31;6.90;;;4.93;;
8665;SDS011;4370;48.916;8.380;2022-09-21T07:04:57;7.90;;;4.87;;
8665;SDS011;4370;48.916;8.380;2022-09-21T07:07:23;9.87;;;4.73;;
8665;SDS011;4370;48.916;8.380;2022-09-21T07:09:49;8.07;;;4.33;;
8665;SDS011;4370;48.916;8.380;2022-09-21T07:12:15;8.17;;;3.57;;
8665;SDS011;4370;48.916;8.380;2022-09-21T07:14:41;11.67;;;3.93;;
8665;SDS011;4370;48.916;8.380;2022-09-21T07:17:11;6.30;;;3.50;;
8665;SDS011;4370;48.916;8.380;2022-09-21T07:19:38;7.03;;;3.40;;
8665;SDS011;4370;48.916;8.380;2022-09-21T07:22:04;7.07;;;3.10;;
8665;SDS011;4370;48.916;8.380;2022-09-21T07:24:30;4.43;;;2.93;;
8665;SDS011;4370;48.916;8.380;2022-09-21T07:26:56;6.37;;;3.57;;
8665;SDS011;4370;48.916;8.380;2022-09-21T07:29:22;5.13;;;2.77;;
8665;SDS011;4370;48.916;8.380;2022-09-21T07:31:48;3.50;;;3.00;;
8665;SDS011;4370;48.916;8.380;2022-09-21T07:34:14;7.47;;;3.00;;
8665;SDS011;4370;48.916;8.380;2022-09-21T07:36:40;4.47;;;2.90;;
8665;SDS011;4370;48.916;8.380;2022-09-21T07:39:07;4.47;;;3.10;;
8665;SDS011;4370;48.916;8.380;2022-09-21T07:41:33;4.90;;;3.30;;
8665;SDS011;4370;48.916;8.380;2022-09-21T07:43:59;6.10;;;3.30;;
8665;SDS011;4370;48.916;8.380;2022-09-21T07:46:25;4.37;;;3.10;;
8665;SDS011;4370;48.916;8.380;2022-09-21T07:48:54;6.07;;;3.40;;
8665;SDS011;4370;48.916;8.380;2022-09-21T07:51:20;5.40;;;3.40;;
8665;SDS011;4370;48.916;8.380;2022-09-21T07:53:46;5.60;;;3.47;;
8665;SDS011;4370;48.916;8.380;2022-09-21T07:56:13;5.07;;;3.50;;
8665;SDS011;4370;48.916;8.380;2022-09-21T07:58:41;7.27;;;3.20;;
8665;SDS011;4370;48.916;8.380;2022-09-21T08:01:27;9.10;;;3.63;;
8665;SDS011;4370;48.916;8.380;2022-09-21T08:03:53;7.50;;;3.77;;
8665;SDS011;4370;48.916;8.380;2022-09-21T08:06:21;7.57;;;3.57;;
8665;SDS011;4370;48.916;8.380;2022-09-21T08:08:47;5.83;;;3.60;;
8665;SDS011;4370;48.916;8.380;2022-09-21T08:11:14;5.60;;;3.60;;
8665;SDS011;4370;48.916;8.380;2022-09-21T08:13:41;7.97;;;3.73;;
8665;SDS011;4370;48.916;8.380;2022-09-21T08:16:06;8.13;;;3.50;;
8665;SDS011;4370;48.916;8.380;2022-09-21T08:18:35;4.87;;;3.30;;
8665;SDS011;4370;48.916;8.380;2022-09-21T08:21:02;4.80;;;3.40;;
8665;SDS011;4370;48.916;8.380;2022-09-21T08:23:28;11.60;;;3.57;;
8665;SDS011;4370;48.916;8.380;2022-09-21T08:26:01;7.87;;;3.23;;
8665;SDS011;4370;48.916;8.380;2022-09-21T08:28:29;5.40;;;2.63;;
8665;SDS011;4370;48.916;8.380;2022-09-21T08:30:58;4.37;;;2.70;;
8665;SDS011;4370;48.916;8.380;2022-09-21T08:33:28;3.77;;;2.63;;
8665;SDS011;4370;48.916;8.380;2022-09-21T08:35:55;3.37;;;2.47;;
8665;SDS011;4370;48.916;8.380;2022-09-21T08:38:22;2.57;;;2.17;;
8665;SDS011;4370;48.916;8.380;2022-09-21T08:40:48;3.67;;;2.20;;
8665;SDS011;4370;48.916;8.380;2022-09-21T08:43:58;4.23;;;2.10;;
8665;SDS011;4370;48.916;8.380;2022-09-21T08:46:21;3.73;;;1.90;;
8665;SDS011;4370;48.916;8.380;2022-09-21T08:51:25;3.10;;;1.90;;
8665;SDS011;4370;48.916;8.380;2022-09-21T08:53:56;2.63;;;1.80;;
8665;SDS011;4370;48.916;8.380;2022-09-21T08:56:24;4.77;;;2.10;;
8665;SDS011;4370;48.916;8.380;2022-09-21T08:58:51;3.10;;;1.80;;
8665;SDS011;4370;48.916;8.380;2022-09-21T09:09:16;4.87;;;2.27;;
8665;SDS011;4370;48.916;8.380;2022-09-21T09:12:00;4.03;;;2.20;;
8665;SDS011;4370;48.916;8.380;2022-09-21T09:17:51;7.23;;;2.53;;
8665;SDS011;4370;48.916;8.380;2022-09-21T09:20:32;6.30;;;2.50;;
8665;SDS011;4370;48.916;8.380;2022-09-21T09:23:09;4.53;;;2.57;;
8665;SDS011;4370;48.916;8.380;2022-09-21T09:25:37;4.77;;;2.57;;
8665;SDS011;4370;48.916;8.380;2022-09-21T09:28:16;5.97;;;2.60;;
8665;SDS011;4370;48.916;8.380;2022-09-21T09:30:51;6.70;;;2.17;;
8665;SDS011;4370;48.916;8.380;2022-09-21T09:33:23;5.17;;;2.20;;
8665;SDS011;4370;48.916;8.380;2022-09-21T09:36:00;5.67;;;2.40;;
8665;SDS011;4370;48.916;8.380;2022-09-21T09:38:43;3.97;;;2.10;;
8665;SDS011;4370;48.916;8.380;2022-09-21T09:46:38;4.80;;;1.90;;
8665;SDS011;4370;48.916;8.380;2022-09-21T09:49:12;4.20;;;2.03;;
8665;SDS011;4370;48.916;8.380;2022-09-21T09:51:44;5.27;;;1.87;;
8665;SDS011;4370;48.916;8.380;2022-09-21T09:54:12;3.23;;;1.80;;
8665;SDS011;4370;48.916;8.380;2022-09-21T09:56:39;2.17;;;1.60;;
8665;SDS011;4370;48.916;8.380;2022-09-21T09:59:07;4.83;;;1.80;;
8665;SDS011;4370;48.916;8.380;2022-09-21T10:01:57;4.47;;;1.50;;
8665;SDS011;4370;48.916;8.380;2022-09-21T10:04:28;4.43;;;1.80;;
8665;SDS011;4370;48.916;8.380;2022-09-21T10:06:54;1.97;;;1.50;;
8665;SDS011;4370;48.916;8.380;2022-09-21T10:09:24;3.53;;;1.80;;
8665;SDS011;4370;48.916;8.380;2022-09-21T10:11:59;6.03;;;2.30;;
8665;SDS011;4370;48.916;8.380;2022-09-21T10:14:28;3.67;;;2.07;;
8665;SDS011;4370;48.916;8.380;2022-09-21T10:17:00;4.73;;;1.80;;
8665;SDS011;4370;48.916;8.380;2022-09-21T10:19:30;3.50;;;1.60;;
8665;SDS011;4370;48.916;8.380;2022-09-21T10:21:56;4.40;;;1.60;;
8665;SDS011;4370;48.916;8.380;2022-09-21T10:24:34;2.30;;;1.30;;
8665;SDS011;4370;48.916;8.380;2022-09-21T10:27:06;3.43;;;1.50;;
8665;SDS011;4370;48.916;8.380;2022-09-21T10:29:44;2.43;;;1.33;;
8665;SDS011;4370;48.916;8.380;2022-09-21T10:34:37;2.13;;;1.13;;
8665;SDS011;4370;48.916;8.380;2022-09-21T10:37:24;3.70;;;1.37;;
8665;SDS011;4370;48.916;8.380;2022-09-21T10:39:55;3.17;;;1.10;;
8665;SDS011;4370;48.916;8.380;2022-09-21T10:42:21;2.10;;;1.20;;
8665;SDS011;4370;48.916;8.380;2022-09-21T10:44:51;2.60;;;1.30;;
8665;SDS011;4370;48.916;8.380;2022-09-21T10:47:32;3.30;;;1.50;;
8665;SDS011;4370;48.916;8.380;2022-09-21T10:50:02;2.53;;;1.20;;
8665;SDS011;4370;48.916;8.380;2022-09-21T10:52:35;2.70;;;1.30;;
8665;SDS011;4370;48.916;8.380;2022-09-21T10:55:04;3.73;;;1.40;;
8665;SDS011;4370;48.916;8.380;2022-09-21T10:57:30;3.83;;;1.70;;
8665;SDS011;4370;48.916;8.380;2022-09-21T10:59:58;1.97;;;1.23;;
8665;SDS011;4370;48.916;8.380;2022-09-21T11:02:53;3.80;;;1.13;;
8665;SDS011;4370;48.916;8.380;2022-09-21T11:05:24;2.83;;;1.20;;
8665;SDS011;4370;48.916;8.380;2022-09-21T11:15:51;2.53;;;1.40;;
8665;SDS011;4370;48.916;8.380;2022-09-21T11:18:22;3.37;;;1.50;;
8665;SDS011;4370;48.916;8.380;2022-09-21T11:26:26;4.67;;;1.37;;
8665;SDS011;4370;48.916;8.380;2022-09-21T11:29:04;3.90;;;1.40;;
8665;SDS011;4370;48.916;8.380;2022-09-21T11:34:36;2.90;;;1.20;;
8665;SDS011;4370;48.916;8.380;2022-09-21T11:37:32;2.03;;;1.30;;
8665;SDS011;4370;48.916;8.380;2022-09-21T11:49:02;2.10;;;1.30;;
8665;SDS011;4370;48.916;8.380;2022-09-21T11:54:15;2.17;;;1.20;;
8665;SDS011;4370;48.916;8.380;2022-09-21T11:57:04;2.43;;;1.30;;
8665;SDS011;4370;48.916;8.380;2022-09-21T12:05:45;3.00;;;1.40;;
8665;SDS011;4370;48.916;8.380;2022-09-21T12:08:17;2.00;;;1.27;;
8665;SDS011;4370;48.916;8.380;2022-09-21T12:13:39;2.50;;;1.60;;
8665;SDS011;4370;48.916;8.380;2022-09-21T12:21:29;2.47;;;1.50;;
8665;SDS011;4370;48.916;8.380;2022-09-21T12:24:12;2.87;;;1.50;;
8665;SDS011;4370;48.916;8.380;2022-09-21T12:26:42;2.17;;;1.17;;
8665;SDS011;4370;48.916;8.380;2022-09-21T12:34:32;3.23;;;1.40;;
8665;SDS011;4370;48.916;8.380;2022-09-21T12:39:45;1.63;;;1.17;;
8665;SDS011;4370;48.916;8.380;2022-09-21T12:42:21;3.40;;;1.30;;
8665;SDS011;4370;48.916;8.380;2022-09-21T12:45:13;2.40;;;1.20;;
8665;SDS011;4370;48.916;8.380;2022-09-21T12:47:56;2.17;;;1.30;;
8665;SDS011;4370;48.916;8.380;2022-09-21T12:52:55;2.57;;;1.10;;
8665;SDS011;4370;48.916;8.380;2022-09-21T12:55:23;1.40;;;1.13;;
8665;SDS011;4370;48.916;8.380;2022-09-21T13:00:58;2.37;;;1.10;;
8665;SDS011;4370;48.916;8.380;2022-09-21T13:03:33;5.57;;;1.50;;
8665;SDS011;4370;48.916;8.380;2022-09-21T13:06:29;2.93;;;1.10;;
8665;SDS011;4370;48.916;8.380;2022-09-21T13:09:00;3.57;;;1.77;;
8665;SDS011;4370;48.916;8.380;2022-09-21T13:11:27;2.60;;;1.20;;
8665;SDS011;4370;48.916;8.380;2022-09-21T13:13:57;3.13;;;1.17;;
8665;SDS011;4370;48.916;8.380;2022-09-21T13:19:35;1.87;;;1.20;;
8665;SDS011;4370;48.916;8.380;2022-09-21T13:24:38;1.33;;;1.10;;
8665;SDS011;4370;48.916;8.380;2022-09-21T13:27:06;2.03;;;1.20;;
8665;SDS011;4370;48.916;8.380;2022-09-21T13:29:33;2.17;;;1.20;;
8665;SDS011;4370;48.916;8.380;2022-09-21T13:47:39;1.93;;;1.10;;
8665;SDS011;4370;48.916;8.380;2022-09-21T13:50:10;1.10;;;1.00;;
8665;SDS011;4370;48.916;8.380;2022-09-21T13:52:38;2.37;;;1.27;;
8665;SDS011;4370;48.916;8.380;2022-09-21T13:57:47;1.30;;;1.20;;
8665;SDS011;4370;48.916;8.380;2022-09-21T14:03:15;3.07;;;1.47;;
8665;SDS011;4370;48.916;8.380;2022-09-21T14:05:44;2.47;;;1.50;;
8665;SDS011;4370;48.916;8.380;2022-09-21T14:10:39;1.23;;;1.13;;
8665;SDS011;4370;48.916;8.380;2022-09-21T14:13:25;4.50;;;1.80;;
8665;SDS011;4370;48.916;8.380;2022-09-21T14:18:58;2.33;;;1.37;;
8665;SDS011;4370;48.916;8.380;2022-09-21T14:21:25;2.20;;;1.10;;
8665;SDS011;4370;48.916;8.380;2022-09-21T14:29:14;1.20;;;1.10;;
8665;SDS011;4370;48.916;8.380;2022-09-21T14:31:45;4.07;;;1.37;;
8665;SDS011;4370;48.916;8.380;2022-09-21T14:34:14;1.47;;;1.17;;
8665;SDS011;4370;48.916;8.380;2022-09-21T14:36:47;1.80;;;1.10;;
8665;SDS011;4370;48.916;8.380;2022-09-21T14:39:18;1.30;;;1.20;;
8665;SDS011;4370;48.916;8.380;2022-09-21T14:41:55;2.33;;;1.20;;
8665;SDS011;4370;48.916;8.380;2022-09-21T14:44:26;3.57;;;1.40;;
8665;SDS011;4370;48.916;8.380;2022-09-21T14:47:03;1.97;;;1.27;;
8665;SDS011;4370;48.916;8.380;2022-09-21T14:49:55;1.70;;;1.20;;
8665;SDS011;4370;48.916;8.380;2022-09-21T14:52:52;1.60;;;1.00;;
8665;SDS011;4370;48.916;8.380;2022-09-21T14:55:32;3.43;;;1.63;;
8665;SDS011;4370;48.916;8.380;2022-09-21T14:58:14;3.03;;;1.10;;
8665;SDS011;4370;48.916;8.380;2022-09-21T15:01:20;2.40;;;1.23;;
8665;SDS011;4370;48.916;8.380;2022-09-21T15:04:12;1.27;;;1.00;;
8665;SDS011;4370;48.916;8.380;2022-09-21T15:06:46;3.40;;;1.37;;
8665;SDS011;4370;48.916;8.380;2022-09-21T15:15:45;1.10;;;0.97;;
8665;SDS011;4370;48.916;8.380;2022-09-21T15:18:31;1.73;;;1.10;;
8665;SDS011;4370;48.916;8.380;2022-09-21T15:21:03;1.10;;;0.90;;
8665;SDS011;4370;48.916;8.380;2022-09-21T15:23:38;2.10;;;0.90;;
8665;SDS011;4370;48.916;8.380;2022-09-21T15:26:18;2.40;;;1.10;;
8665;SDS011;4370;48.916;8.380;2022-09-21T15:29:00;1.27;;;0.90;;
8665;SDS011;4370;48.916;8.380;2022-09-21T15:31:32;1.83;;;0.90;;
8665;SDS011;4370;48.916;8.380;2022-09-21T15:33:59;1.50;;;1.10;;
8665;SDS011;4370;48.916;8.380;2022-09-21T15:36:27;1.17;;;1.00;;
8665;SDS011;4370;48.916;8.380;2022-09-21T15:38:54;2.33;;;1.13;;
8665;SDS011;4370;48.916;8.380;2022-09-21T15:41:42;2.73;;;1.20;;
8665;SDS011;4370;48.916;8.380;2022-09-21T15:46:39;1.73;;;1.00;;
8665;SDS011;4370;48.916;8.380;2022-09-21T15:49:11;1.33;;;0.80;;
8665;SDS011;4370;48.916;8.380;2022-09-21T15:51:40;1.33;;;1.00;;
8665;SDS011;4370;48.916;8.380;2022-09-21T15:54:15;2.03;;;1.13;;
8665;SDS011;4370;48.916;8.380;2022-09-21T15:56:50;1.20;;;0.97;;
8665;SDS011;4370;48.916;8.380;2022-09-21T15:59:18;1.17;;;1.00;;
8665;SDS011;4370;48.916;8.380;2022-09-21T16:01:46;0.83;;;0.83;;
8665;SDS011;4370;48.916;8.380;2022-09-21T16:04:18;1.43;;;1.00;;
8665;SDS011;4370;48.916;8.380;2022-09-21T16:09:57;2.63;;;1.10;;
8665;SDS011;4370;48.916;8.380;2022-09-21T16:12:36;2.03;;;1.00;;
8665;SDS011;4370;48.916;8.380;2022-09-21T16:15:12;1.70;;;1.00;;
8665;SDS011;4370;48.916;8.380;2022-09-21T16:17:56;1.27;;;1.00;;
8665;SDS011;4370;48.916;8.380;2022-09-21T16:20:43;2.00;;;1.07;;
8665;SDS011;4370;48.916;8.380;2022-09-21T16:23:15;1.23;;;1.10;;
8665;SDS011;4370;48.916;8.380;2022-09-21T16:25:55;2.30;;;1.00;;
8665;SDS011;4370;48.916;8.380;2022-09-21T16:28:28;2.10;;;1.13;;
8665;SDS011;4370;48.916;8.380;2022-09-21T16:30:58;2.07;;;1.10;;
8665;SDS011;4370;48.916;8.380;2022-09-21T16:33:38;2.47;;;1.20;;
8665;SDS011;4370;48.916;8.380;2022-09-21T16:38:41;1.40;;;1.00;;
8665;SDS011;4370;48.916;8.380;2022-09-21T16:41:07;1.63;;;1.00;;
8665;SDS011;4370;48.916;8.380;2022-09-21T16:43:37;1.20;;;1.10;;
8665;SDS011;4370;48.916;8.380;2022-09-21T16:46:07;1.07;;;1.00;;
8665;SDS011;4370;48.916;8.380;2022-09-21T16:48:33;1.47;;;1.00;;
8665;SDS011;4370;48.916;8.380;2022-09-21T16:50:58;2.20;;;1.10;;
8665;SDS011;4370;48.916;8.380;2022-09-21T16:53:24;1.97;;;1.17;;
8665;SDS011;4370;48.916;8.380;2022-09-21T16:55:51;1.20;;;1.10;;
8665;SDS011;4370;48.916;8.380;2022-09-21T16:58:17;1.13;;;1.00;;
8665;SDS011;4370;48.916;8.380;2022-09-21T17:00:48;1.20;;;1.10;;
8665;SDS011;4370;48.916;8.380;2022-09-21T17:03:17;1.87;;;1.10;;
8665;SDS011;4370;48.916;8.380;2022-09-21T17:05:43;1.40;;;1.10;;
8665;SDS011;4370;48.916;8.380;2022-09-21T17:08:09;1.10;;;1.00;;
8665;SDS011;4370;48.916;8.380;2022-09-21T17:10:36;1.07;;;0.90;;
8665;SDS011;4370;48.916;8.380;2022-09-21T17:13:04;2.43;;;1.20;;
8665;SDS011;4370;48.916;8.380;2022-09-21T17:15:30;2.40;;;1.00;;
8665;SDS011;4370;48.916;8.380;2022-09-21T17:17:57;1.23;;;1.10;;
8665;SDS011;4370;48.916;8.380;2022-09-21T17:20:33;1.10;;;1.00;;
8665;SDS011;4370;48.916;8.380;2022-09-21T17:23:01;1.83;;;1.20;;
8665;SDS011;4370;48.916;8.380;2022-09-21T17:25:27;5.03;;;1.20;;
8665;SDS011;4370;48.916;8.380;2022-09-21T17:27:53;1.27;;;1.13;;
8665;SDS011;4370;48.916;8.380;2022-09-21T17:30:21;1.83;;;1.40;;
8665;SDS011;4370;48.916;8.380;2022-09-21T17:32:48;1.00;;;0.90;;
8665;SDS011;4370;48.916;8.380;2022-09-21T17:35:16;2.30;;;1.20;;
8665;SDS011;4370;48.916;8.380;2022-09-21T17:37:46;1.23;;;1.03;;
8665;SDS011;4370;48.916;8.380;2022-09-21T17:40:12;1.10;;;1.00;;
8665;SDS011;4370;48.916;8.380;2022-09-21T17:42:39;1.90;;;1.20;;
8665;SDS011;4370;48.916;8.380;2022-09-21T17:47:49;1.53;;;1.30;;
8665;SDS011;4370;48.916;8.380;2022-09-21T17:50:33;1.97;;;1.43;;
8665;SDS011;4370;48.916;8.380;2022-09-21T17:52:59;2.23;;;1.30;;
8665;SDS011;4370;48.916;8.380;2022-09-21T17:55:44;1.87;;;1.33;;
8665;SDS011;4370;48.916;8.380;2022-09-21T17:58:27;1.23;;;1.13;;
8665;SDS011;4370;48.916;8.380;2022-09-21T18:01:35;1.30;;;1.20;;
8665;SDS011;4370;48.916;8.380;2022-09-21T18:04:04;1.60;;;1.30;;
8665;SDS011;4370;48.916;8.380;2022-09-21T18:06:30;1.43;;;1.20;;
8665;SDS011;4370;48.916;8.380;2022-09-21T18:08:56;2.10;;;1.20;;
8665;SDS011;4370;48.916;8.380;2022-09-21T18:14:17;2.40;;;1.30;;
8665;SDS011;4370;48.916;8.380;2022-09-21T18:19:48;1.30;;;1.20;;
8665;SDS011;4370;48.916;8.380;2022-09-21T18:22:46;2.13;;;1.20;;
8665;SDS011;4370;48.916;8.380;2022-09-21T18:25:24;1.30;;;1.20;;
8665;SDS011;4370;48.916;8.380;2022-09-21T18:27:57;1.40;;;1.30;;